createdAt,value
2023-05-04T00:00:16.122Z,29.570
2023-05-04T00:05:19.084Z,29.571
2023-05-04T00:10:19.077Z,29.573
2023-05-04T00:15:19.049Z,29.573
2023-05-04T00:20:15.997Z,29.575
2023-05-04T00:25:19.119Z,29.577
2023-05-04T00:30:16.195Z,29.580
2023-05-04T00:35:19.092Z,29.580
2023-05-04T00:40:19.098Z,29.580
2023-05-04T00:45:19.062Z,29.585
2023-05-04T00:50:19.104Z,29.585
2023-05-04T00:55:16.094Z,29.588
2023-05-04T01:00:16.129Z,29.588
2023-05-04T01:05:19.291Z,29.589
2023-05-04T01:10:19.160Z,29.590
2023-05-04T01:15:16.215Z,29.594
2023-05-04T01:20:19.162Z,29.596
2023-05-04T01:25:16.151Z,29.598
2023-05-04T01:30:16.139Z,29.603
2023-05-04T01:35:19.115Z,29.606
2023-05-04T01:40:19.126Z,29.606
2023-05-04T01:45:19.116Z,29.605
2023-05-04T01:50:19.143Z,29.605
2023-05-04T01:55:19.152Z,29.607
2023-05-04T02:00:19.186Z,29.609
2023-05-04T02:05:19.113Z,29.610
2023-05-04T02:10:16.212Z,29.610
2023-05-04T02:15:19.195Z,29.612
2023-05-04T02:20:16.184Z,29.613
2023-05-04T02:25:16.148Z,29.613
2023-05-04T02:30:19.199Z,29.616
2023-05-04T02:35:16.227Z,29.618
2023-05-04T02:40:19.214Z,29.618
2023-05-04T02:45:19.191Z,29.618
2023-05-04T02:50:19.182Z,29.619
2023-05-04T02:55:16.081Z,29.619
2023-05-04T03:00:19.208Z,29.621
2023-05-04T03:05:19.160Z,29.621
2023-05-04T03:10:19.173Z,29.625
2023-05-04T03:15:16.171Z,29.627
2023-05-04T03:20:19.165Z,29.627
2023-05-04T03:25:19.162Z,29.628
2023-05-04T03:30:19.219Z,29.629
2023-05-04T03:35:24.724Z,29.631
2023-05-04T03:40:19.181Z,29.631
2023-05-04T03:45:16.232Z,29.633
2023-05-04T03:50:16.303Z,29.634
2023-05-04T03:55:19.220Z,29.635
2023-05-04T04:00:18.561Z,29.638
2023-05-04T04:05:18.457Z,29.640
2023-05-04T04:10:18.465Z,29.643
2023-05-04T04:15:18.406Z,29.643
2023-05-04T04:20:15.448Z,29.641
2023-05-04T04:25:15.463Z,29.643
2023-05-04T04:30:18.474Z,29.642
2023-05-04T04:35:18.497Z,29.642
2023-05-04T04:40:18.493Z,29.644
2023-05-04T04:45:15.490Z,29.642
2023-05-04T04:50:15.518Z,29.643
2023-05-04T04:55:18.496Z,29.642
2023-05-04T05:00:18.479Z,29.643
2023-05-04T05:05:18.503Z,29.645
2023-05-04T05:10:18.528Z,29.645
2023-05-04T05:15:18.506Z,29.648
2023-05-04T05:20:15.542Z,29.645
2023-05-04T05:25:15.535Z,29.647
2023-05-04T05:30:18.473Z,29.650
2023-05-04T05:35:18.429Z,29.648
2023-05-04T05:40:18.466Z,29.648
2023-05-04T05:45:18.461Z,29.651
2023-05-04T05:50:15.522Z,29.655
2023-05-04T05:55:15.516Z,29.656
2023-05-04T06:00:18.593Z,29.657
2023-05-04T06:05:18.488Z,29.656
2023-05-04T06:10:18.564Z,29.657
2023-05-04T06:15:18.459Z,29.654
2023-05-04T06:20:15.503Z,29.655
2023-05-04T06:25:15.382Z,29.656
2023-05-04T06:30:18.512Z,29.658
2023-05-04T06:35:18.502Z,29.660
2023-05-04T06:40:18.518Z,29.663
2023-05-04T06:45:18.502Z,29.667
2023-05-04T06:50:15.598Z,29.668
2023-05-04T06:55:18.591Z,29.671
2023-05-04T07:00:18.497Z,29.674
2023-05-04T07:05:15.563Z,29.673
2023-05-04T07:10:15.593Z,29.672
2023-05-04T07:15:18.549Z,29.673
2023-05-04T07:20:18.570Z,29.675
2023-05-04T07:25:18.501Z,29.677
2023-05-04T07:30:15.559Z,29.682
2023-05-04T07:35:18.562Z,29.683
2023-05-04T07:40:18.517Z,29.683
2023-05-04T07:45:18.523Z,29.685
2023-05-04T07:50:15.574Z,29.686
2023-05-04T07:55:15.584Z,29.687
2023-05-04T08:00:18.643Z,29.687
2023-05-04T08:05:18.513Z,29.688
2023-05-04T08:10:15.604Z,29.693
2023-05-04T08:15:18.608Z,29.694
2023-05-04T08:20:18.649Z,29.696
2023-05-04T08:25:18.546Z,29.696
2023-05-04T08:30:15.600Z,29.696
2023-05-04T08:35:18.680Z,29.695
2023-05-04T08:40:18.607Z,29.697
2023-05-04T08:45:15.627Z,29.699
2023-05-04T08:50:18.591Z,29.702
2023-05-04T08:55:18.569Z,29.703
2023-05-04T09:00:15.639Z,29.705
2023-05-04T09:05:18.633Z,29.706
2023-05-04T09:10:18.711Z,29.707
2023-05-04T09:15:18.582Z,29.709
2023-05-04T09:20:15.612Z,29.710
2023-05-04T09:25:15.606Z,29.712
2023-05-04T09:30:18.631Z,29.715
2023-05-04T09:35:29.382Z,29.717
2023-05-04T09:40:15.672Z,29.721
2023-05-04T09:45:15.693Z,29.725
2023-05-04T09:50:20.578Z,29.727
2023-05-04T09:55:18.675Z,29.731
2023-05-04T10:00:18.739Z,29.733
2023-05-04T10:05:18.987Z,29.736
2023-05-04T10:10:18.580Z,29.738
2023-05-04T10:15:15.669Z,29.741
2023-05-04T10:20:15.686Z,29.744
2023-05-04T10:25:18.684Z,29.745
2023-05-04T10:30:18.863Z,29.748
2023-05-04T10:35:15.637Z,29.749
2023-05-04T10:40:18.734Z,29.752
2023-05-04T10:45:18.657Z,29.755
2023-05-04T10:50:15.801Z,29.758
2023-05-04T10:55:40.495Z,29.758
2023-05-04T11:00:15.705Z,29.760
2023-05-04T11:05:18.622Z,29.760
2023-05-04T11:10:18.668Z,29.761
2023-05-04T11:15:18.626Z,29.765
2023-05-04T11:20:18.650Z,29.766
2023-05-04T11:25:18.675Z,29.767
2023-05-04T11:30:18.640Z,29.768
2023-05-04T11:35:15.720Z,29.767
2023-05-04T11:40:15.579Z,29.771
2023-05-04T11:45:18.795Z,29.774
2023-05-04T11:50:18.702Z,29.778
2023-05-04T11:55:18.637Z,29.776
2023-05-04T12:00:18.641Z,29.779
2023-05-04T12:05:15.745Z,29.780
2023-05-04T12:10:18.701Z,29.782
2023-05-04T12:15:15.507Z,29.783
2023-05-04T12:20:15.548Z,29.785
2023-05-04T12:25:15.726Z,29.788
2023-05-04T12:31:22.006Z,29.790
2023-05-04T12:35:18.766Z,29.791
2023-05-04T12:40:28.402Z,29.794
2023-05-04T12:45:15.753Z,29.793
2023-05-04T12:50:15.734Z,29.794
2023-05-04T12:55:18.722Z,29.794
2023-05-04T13:00:15.501Z,29.795
2023-05-04T13:05:18.726Z,29.799
2023-05-04T13:10:15.773Z,29.798
2023-05-04T13:15:18.698Z,29.799
2023-05-04T13:20:15.731Z,29.802
2023-05-04T13:25:18.697Z,29.803
2023-05-04T13:30:18.725Z,29.804
2023-05-04T13:35:18.730Z,29.805
2023-05-04T13:40:15.785Z,29.806
2023-05-04T13:45:18.776Z,29.807
2023-05-04T13:50:18.713Z,29.811
2023-05-04T13:55:18.755Z,29.812
2023-05-04T14:00:18.768Z,29.815
2023-05-04T14:05:18.689Z,29.816
2023-05-04T14:10:18.847Z,29.819
2023-05-04T14:15:18.768Z,29.821
2023-05-04T14:20:15.741Z,29.822
2023-05-04T14:25:15.792Z,29.826
2023-05-04T14:30:18.830Z,29.828
2023-05-04T14:35:15.772Z,29.831
2023-05-04T14:40:18.812Z,29.837
2023-05-04T14:45:15.651Z,29.837
2023-05-04T14:50:18.751Z,29.838
2023-05-04T14:55:18.704Z,29.838
2023-05-04T15:00:18.787Z,29.839
2023-05-04T15:05:16.919Z,29.841
2023-05-04T15:10:18.773Z,29.840
2023-05-04T15:15:18.729Z,29.843
2023-05-04T15:20:18.866Z,29.845
2023-05-04T15:25:15.860Z,29.847
2023-05-04T15:30:18.810Z,29.848
2023-05-04T15:35:18.746Z,29.849
2023-05-04T15:40:15.808Z,29.849
2023-05-04T15:45:18.750Z,29.851
2023-05-04T15:50:15.755Z,29.851
2023-05-04T15:55:25.747Z,29.853
2023-05-04T16:00:18.801Z,29.853
2023-05-04T16:05:18.805Z,29.855
2023-05-04T16:10:15.910Z,29.856
2023-05-04T16:15:18.840Z,29.857
2023-05-04T16:20:18.846Z,29.857
2023-05-04T16:25:15.808Z,29.859
2023-05-04T16:30:18.829Z,29.861
2023-05-04T16:35:18.806Z,29.860
2023-05-04T16:40:18.799Z,29.861
2023-05-04T16:45:18.798Z,29.864
2023-05-04T16:50:18.774Z,29.866
2023-05-04T16:55:16.139Z,29.866
2023-05-04T17:00:15.835Z,29.867
2023-05-04T17:05:15.826Z,29.868
2023-05-04T17:10:15.844Z,29.870
2023-05-04T17:15:15.864Z,29.872
2023-05-04T17:20:15.925Z,29.874
2023-05-04T17:25:15.968Z,29.873
2023-05-04T17:30:18.835Z,29.875
2023-05-04T17:35:25.310Z,29.874
2023-05-04T17:40:18.803Z,29.876
2023-05-04T17:45:18.784Z,29.877
2023-05-04T17:50:18.804Z,29.877
2023-05-04T17:55:18.773Z,29.877
2023-05-04T18:00:15.855Z,29.879
2023-05-04T18:05:18.931Z,29.881
2023-05-04T18:10:15.868Z,29.883
2023-05-04T18:15:18.857Z,29.886
2023-05-04T18:20:18.930Z,29.885
2023-05-04T18:25:18.818Z,29.885
2023-05-04T18:30:18.806Z,29.884
2023-05-04T18:35:18.815Z,29.885
2023-05-04T18:40:15.899Z,29.884
2023-05-04T18:45:15.904Z,29.884
2023-05-04T18:50:15.888Z,29.885
2023-05-04T18:55:15.791Z,29.885
2023-05-04T19:00:18.865Z,29.884
2023-05-04T19:05:18.811Z,29.887
2023-05-04T19:10:18.836Z,29.888
2023-05-04T19:15:15.918Z,29.886
2023-05-04T19:20:19.559Z,29.888
2023-05-04T19:25:26.971Z,29.888
2023-05-04T19:30:18.829Z,29.888
2023-05-04T19:35:18.822Z,29.890
2023-05-04T19:40:18.820Z,29.891
2023-05-04T19:45:18.825Z,29.893
2023-05-04T19:50:18.917Z,29.892
2023-05-04T19:55:15.920Z,29.894
2023-05-04T20:00:18.884Z,29.895
2023-05-04T20:05:15.896Z,29.894
2023-05-04T20:10:18.918Z,29.895
2023-05-04T20:15:18.848Z,29.895
2023-05-04T20:20:18.894Z,29.896
2023-05-04T20:25:15.888Z,29.898
2023-05-04T20:30:18.980Z,29.902
2023-05-04T20:35:18.893Z,29.905
2023-05-04T20:40:15.931Z,29.907
2023-05-04T20:45:15.914Z,29.908
2023-05-04T20:50:15.973Z,29.907
2023-05-04T20:55:18.957Z,29.910
2023-05-04T21:00:15.978Z,29.914
2023-05-04T21:05:18.954Z,29.915
2023-05-04T21:10:19.042Z,29.918
2023-05-04T21:15:18.935Z,29.917
2023-05-04T21:20:18.943Z,29.918
2023-05-04T21:25:15.965Z,29.921
2023-05-04T21:30:15.927Z,29.920
2023-05-04T21:35:18.968Z,29.921
2023-05-04T21:40:18.906Z,29.926
2023-05-04T21:45:15.959Z,29.926
2023-05-04T21:50:15.953Z,29.925
2023-05-04T21:55:18.910Z,29.926
2023-05-04T22:00:18.974Z,29.929
2023-05-04T22:05:18.942Z,29.930
2023-05-04T22:10:18.987Z,29.929
2023-05-04T22:15:18.966Z,29.929
2023-05-04T22:20:18.944Z,29.930
2023-05-04T22:25:15.947Z,29.933
2023-05-04T22:30:15.959Z,29.933
2023-05-04T22:35:15.994Z,29.935
2023-05-04T22:40:19.011Z,29.937
2023-05-04T22:45:18.963Z,29.938
2023-05-04T22:50:18.949Z,29.940
2023-05-04T22:55:16.083Z,29.943
2023-05-04T23:00:19.154Z,29.945
2023-05-04T23:05:15.995Z,29.948
2023-05-04T23:10:19.016Z,29.949
2023-05-04T23:15:18.925Z,29.950
2023-05-04T23:20:18.937Z,29.951
2023-05-04T23:25:15.982Z,29.952
2023-05-04T23:30:19.056Z,29.953
2023-05-04T23:35:15.980Z,29.954
2023-05-04T23:40:18.982Z,29.956
2023-05-04T23:45:19.044Z,29.955
2023-05-04T23:50:16.001Z,29.954
2023-05-04T23:55:18.977Z,29.955
